Startpagina
METAR-TAF:

METAR-TAF

Vliegvelden :

Tahiti, Frans-Polynesië

breedte: 17-33S, lengte: 149-37W, hoogte: 2 m

Actueel weer

Dit bericht is 22 minuten geleden gemaakt, om 02:00 UTC
Wind 3 kt uit het oostnoordoosten, variërend tussen het noorden en het oostzuidoosten
Temperatuur 30°C
Vochtigheid 62%
Druk 1014 hPa
Zicht 10 km of meer
Weinig wolken op 2000 ft
Verspreide wolken op 4600 ft

METAR: NTAA 270200Z 06003KT 010V110 9999 FEW020 SCT046 30/22 Q1014 NOSIG

Tijdstip: 16:22 (02:22 UTC)

Verwachting

Dit bericht is 3 uur en het 22 minuten geleden gemaakt, om 23:00 UTC
Verwachting geldig van 27 om 00 UTC tot 28 om 06 UTC
Wind 3 kt uit variabele richting
Zicht 10 km of meer
Weinig wolken op 2300 ft
Kans 30% :
Tijdelijke
van 27 om 00 UTC tot 27 om 03 UTC
Wind 12 kt uit het zuidzuidwesten
Tijdelijke
van 27 om 22 UTC tot 28 om 02 UTC
Wind 12 kt uit het zuidzuidwesten

TAF: NTAA 262300Z 2700/2806 VRB03KT 9999 FEW023 PROB30 TEMPO 2700/2703 20012KT TEMPO 2722/2802 20012KT

Waarnemingen en weersverwachtingen van meer dan 4000 vliegvelden (METAR en TAF).

De beschikbare stations zijn de gele en rode punten op de kaart.

Ga met uw muis naar het station om de naam te zien.

Klik dan om waarnemingen en weersverwachtingen te zien.

kaart wijzigen: klik op de groene knoppen met een zwart kruis om in te zoomen, op de groene knop met een streepje om uit te zoomen of op de groene pijlen voor aangrenzende kaarten.


METAR-TAF: